sensor_id;sensor_type;location;lat;lon;timestamp;temperature;humidity
77100;SHT31;66602;48.922;2.414;2023-07-09T00:01:34;24.12;71.35
77100;SHT31;66602;48.922;2.414;2023-07-09T00:03:59;24.08;71.63
77100;SHT31;66602;48.922;2.414;2023-07-09T00:06:25;24.00;71.95
77100;SHT31;66602;48.922;2.414;2023-07-09T00:08:51;23.96;72.56
77100;SHT31;66602;48.922;2.414;2023-07-09T00:11:17;23.97;72.41
77100;SHT31;66602;48.922;2.414;2023-07-09T00:13:43;23.96;72.41
77100;SHT31;66602;48.922;2.414;2023-07-09T00:16:20;23.88;72.76
77100;SHT31;66602;48.922;2.414;2023-07-09T00:18:46;23.81;73.37
77100;SHT31;66602;48.922;2.414;2023-07-09T00:21:15;23.71;73.88
77100;SHT31;66602;48.922;2.414;2023-07-09T00:23:40;23.71;73.58
77100;SHT31;66602;48.922;2.414;2023-07-09T00:26:13;23.73;73.76
77100;SHT31;66602;48.922;2.414;2023-07-09T00:28:39;23.67;73.84
77100;SHT31;66602;48.922;2.414;2023-07-09T00:31:10;23.66;74.15
77100;SHT31;66602;48.922;2.414;2023-07-09T00:33:36;23.59;74.42
77100;SHT31;66602;48.922;2.414;2023-07-09T00:36:10;23.51;74.55
77100;SHT31;66602;48.922;2.414;2023-07-09T00:38:36;23.47;74.66
77100;SHT31;66602;48.922;2.414;2023-07-09T00:41:08;23.39;75.44
77100;SHT31;66602;48.922;2.414;2023-07-09T00:43:37;23.33;75.48
77100;SHT31;66602;48.922;2.414;2023-07-09T00:49:01;23.29;75.48
77100;SHT31;66602;48.922;2.414;2023-07-09T00:51:31;23.23;76.24
77100;SHT31;66602;48.922;2.414;2023-07-09T00:54:02;23.20;76.30
77100;SHT31;66602;48.922;2.414;2023-07-09T00:56:38;23.16;76.44
77100;SHT31;66602;48.922;2.414;2023-07-09T00:59:08;23.11;76.80
77100;SHT31;66602;48.922;2.414;2023-07-09T01:01:35;23.11;76.72
77100;SHT31;66602;48.922;2.414;2023-07-09T01:04:02;23.15;76.96
77100;SHT31;66602;48.922;2.414;2023-07-09T01:06:45;23.11;77.07
77100;SHT31;66602;48.922;2.414;2023-07-09T01:09:12;23.03;77.38
77100;SHT31;66602;48.922;2.414;2023-07-09T01:11:37;22.98;77.74
77100;SHT31;66602;48.922;2.414;2023-07-09T01:14:08;22.94;77.74
77100;SHT31;66602;48.922;2.414;2023-07-09T01:16:37;22.87;78.17
77100;SHT31;66602;48.922;2.414;2023-07-09T01:19:05;22.82;78.56
77100;SHT31;66602;48.922;2.414;2023-07-09T01:21:30;22.78;78.78
77100;SHT31;66602;48.922;2.414;2023-07-09T01:23:57;22.72;79.13
77100;SHT31;66602;48.922;2.414;2023-07-09T01:26:25;22.65;79.27
77100;SHT31;66602;48.922;2.414;2023-07-09T01:28:53;22.60;79.64
77100;SHT31;66602;48.922;2.414;2023-07-09T01:31:19;22.53;79.80
77100;SHT31;66602;48.922;2.414;2023-07-09T01:33:46;22.47;79.95
77100;SHT31;66602;48.922;2.414;2023-07-09T01:36:18;22.44;79.85
77100;SHT31;66602;48.922;2.414;2023-07-09T01:38:47;22.36;80.44
77100;SHT31;66602;48.922;2.414;2023-07-09T01:41:14;22.31;80.81
77100;SHT31;66602;48.922;2.414;2023-07-09T01:43:42;22.25;80.74
77100;SHT31;66602;48.922;2.414;2023-07-09T01:46:09;22.30;80.89
77100;SHT31;66602;48.922;2.414;2023-07-09T01:48:35;22.24;80.87
77100;SHT31;66602;48.922;2.414;2023-07-09T01:51:08;22.23;80.67
77100;SHT31;66602;48.922;2.414;2023-07-09T01:53:34;22.25;80.56
77100;SHT31;66602;48.922;2.414;2023-07-09T01:56:02;22.24;80.23
77100;SHT31;66602;48.922;2.414;2023-07-09T01:58:28;22.30;79.70
77100;SHT31;66602;48.922;2.414;2023-07-09T02:00:55;22.31;79.72
77100;SHT31;66602;48.922;2.414;2023-07-09T02:03:21;22.33;79.28
77100;SHT31;66602;48.922;2.414;2023-07-09T02:05:47;22.30;79.13
77100;SHT31;66602;48.922;2.414;2023-07-09T02:08:13;22.29;78.86
77100;SHT31;66602;48.922;2.414;2023-07-09T02:10:38;22.21;78.98
77100;SHT31;66602;48.922;2.414;2023-07-09T02:13:04;22.23;79.82
77100;SHT31;66602;48.922;2.414;2023-07-09T02:15:30;22.23;80.09
77100;SHT31;66602;48.922;2.414;2023-07-09T02:17:55;22.18;80.68
77100;SHT31;66602;48.922;2.414;2023-07-09T02:20:21;22.12;80.83
77100;SHT31;66602;48.922;2.414;2023-07-09T02:22:49;22.10;80.55
77100;SHT31;66602;48.922;2.414;2023-07-09T02:25:15;22.04;80.79
77100;SHT31;66602;48.922;2.414;2023-07-09T02:27:40;22.06;81.10
77100;SHT31;66602;48.922;2.414;2023-07-09T02:30:06;21.99;81.10
77100;SHT31;66602;48.922;2.414;2023-07-09T02:32:32;21.89;81.31
77100;SHT31;66602;48.922;2.414;2023-07-09T02:34:57;21.88;81.08
77100;SHT31;66602;48.922;2.414;2023-07-09T02:37:25;21.85;80.88
77100;SHT31;66602;48.922;2.414;2023-07-09T02:39:51;21.81;80.68
77100;SHT31;66602;48.922;2.414;2023-07-09T02:42:19;21.76;80.79
77100;SHT31;66602;48.922;2.414;2023-07-09T02:44:45;21.72;80.93
77100;SHT31;66602;48.922;2.414;2023-07-09T02:47:11;21.67;81.07
77100;SHT31;66602;48.922;2.414;2023-07-09T02:49:37;21.66;81.00
77100;SHT31;66602;48.922;2.414;2023-07-09T02:52:03;21.67;81.15
77100;SHT31;66602;48.922;2.414;2023-07-09T02:54:29;21.65;81.07
77100;SHT31;66602;48.922;2.414;2023-07-09T02:56:55;21.65;81.41
77100;SHT31;66602;48.922;2.414;2023-07-09T02:59:20;21.66;81.13
77100;SHT31;66602;48.922;2.414;2023-07-09T03:01:46;21.62;81.37
77100;SHT31;66602;48.922;2.414;2023-07-09T03:04:14;21.61;81.55
77100;SHT31;66602;48.922;2.414;2023-07-09T03:06:40;21.62;81.53
77100;SHT31;66602;48.922;2.414;2023-07-09T03:09:06;21.62;81.63
77100;SHT31;66602;48.922;2.414;2023-07-09T03:11:33;21.61;82.03
77100;SHT31;66602;48.922;2.414;2023-07-09T03:13:59;21.58;82.39
77100;SHT31;66602;48.922;2.414;2023-07-09T03:16:29;21.52;82.84
77100;SHT31;66602;48.922;2.414;2023-07-09T03:18:55;21.48;83.17
77100;SHT31;66602;48.922;2.414;2023-07-09T03:21:22;21.41;83.28
77100;SHT31;66602;48.922;2.414;2023-07-09T03:23:48;21.38;83.54
77100;SHT31;66602;48.922;2.414;2023-07-09T03:26:14;21.39;83.71
77100;SHT31;66602;48.922;2.414;2023-07-09T03:28:40;21.38;83.97
77100;SHT31;66602;48.922;2.414;2023-07-09T03:31:06;21.35;83.87
77100;SHT31;66602;48.922;2.414;2023-07-09T03:33:31;21.32;84.08
77100;SHT31;66602;48.922;2.414;2023-07-09T03:35:57;21.32;84.10
77100;SHT31;66602;48.922;2.414;2023-07-09T03:38:22;21.30;83.97
77100;SHT31;66602;48.922;2.414;2023-07-09T03:40:52;21.30;83.95
77100;SHT31;66602;48.922;2.414;2023-07-09T03:43:18;21.31;84.01
77100;SHT31;66602;48.922;2.414;2023-07-09T03:45:44;21.25;83.98
77100;SHT31;66602;48.922;2.414;2023-07-09T03:48:10;21.24;84.00
77100;SHT31;66602;48.922;2.414;2023-07-09T03:50:35;21.20;84.32
77100;SHT31;66602;48.922;2.414;2023-07-09T03:53:00;21.17;84.49
77100;SHT31;66602;48.922;2.414;2023-07-09T03:55:26;21.12;84.72
77100;SHT31;66602;48.922;2.414;2023-07-09T03:57:55;21.05;85.02
77100;SHT31;66602;48.922;2.414;2023-07-09T04:00:21;21.03;85.00
77100;SHT31;66602;48.922;2.414;2023-07-09T04:02:47;20.91;85.22
77100;SHT31;66602;48.922;2.414;2023-07-09T04:05:13;20.88;85.42
77100;SHT31;66602;48.922;2.414;2023-07-09T04:07:39;20.86;85.79
77100;SHT31;66602;48.922;2.414;2023-07-09T04:10:06;20.83;85.73
77100;SHT31;66602;48.922;2.414;2023-07-09T04:12:32;20.80;86.11
77100;SHT31;66602;48.922;2.414;2023-07-09T04:14:58;20.79;85.90
77100;SHT31;66602;48.922;2.414;2023-07-09T04:17:23;20.74;86.05
77100;SHT31;66602;48.922;2.414;2023-07-09T04:19:49;20.69;86.26
77100;SHT31;66602;48.922;2.414;2023-07-09T04:22:15;20.67;86.43
77100;SHT31;66602;48.922;2.414;2023-07-09T04:24:40;20.72;86.27
77100;SHT31;66602;48.922;2.414;2023-07-09T04:27:06;20.70;86.46
77100;SHT31;66602;48.922;2.414;2023-07-09T04:29:33;20.73;86.20
77100;SHT31;66602;48.922;2.414;2023-07-09T04:32:04;20.76;86.19
77100;SHT31;66602;48.922;2.414;2023-07-09T04:34:30;20.72;86.17
77100;SHT31;66602;48.922;2.414;2023-07-09T04:36:56;20.70;86.30
77100;SHT31;66602;48.922;2.414;2023-07-09T04:39:21;20.69;86.25
77100;SHT31;66602;48.922;2.414;2023-07-09T04:41:47;20.77;86.21
77100;SHT31;66602;48.922;2.414;2023-07-09T04:44:13;20.81;85.60
77100;SHT31;66602;48.922;2.414;2023-07-09T04:46:38;20.81;85.61
77100;SHT31;66602;48.922;2.414;2023-07-09T04:49:04;20.80;84.45
77100;SHT31;66602;48.922;2.414;2023-07-09T04:51:30;20.83;84.70
77100;SHT31;66602;48.922;2.414;2023-07-09T04:53:55;20.84;84.27
77100;SHT31;66602;48.922;2.414;2023-07-09T04:56:21;20.88;83.37
77100;SHT31;66602;48.922;2.414;2023-07-09T04:58:46;20.94;83.18
77100;SHT31;66602;48.922;2.414;2023-07-09T05:01:12;20.95;82.88
77100;SHT31;66602;48.922;2.414;2023-07-09T05:03:37;20.94;82.30
77100;SHT31;66602;48.922;2.414;2023-07-09T05:06:04;20.91;82.55
77100;SHT31;66602;48.922;2.414;2023-07-09T05:08:30;20.91;81.82
77100;SHT31;66602;48.922;2.414;2023-07-09T05:10:57;20.93;81.52
77100;SHT31;66602;48.922;2.414;2023-07-09T05:13:23;20.93;81.26
77100;SHT31;66602;48.922;2.414;2023-07-09T05:15:50;20.93;81.34
77100;SHT31;66602;48.922;2.414;2023-07-09T05:18:17;20.94;81.11
77100;SHT31;66602;48.922;2.414;2023-07-09T05:20:43;20.93;79.69
77100;SHT31;66602;48.922;2.414;2023-07-09T05:23:09;20.97;79.98
77100;SHT31;66602;48.922;2.414;2023-07-09T05:25:35;20.98;80.22
77100;SHT31;66602;48.922;2.414;2023-07-09T05:28:01;21.03;79.85
77100;SHT31;66602;48.922;2.414;2023-07-09T05:30:26;21.08;79.57
77100;SHT31;66602;48.922;2.414;2023-07-09T05:32:52;21.14;78.87
77100;SHT31;66602;48.922;2.414;2023-07-09T05:35:21;21.28;78.43
77100;SHT31;66602;48.922;2.414;2023-07-09T05:37:47;21.30;77.85
77100;SHT31;66602;48.922;2.414;2023-07-09T05:40:12;21.37;77.47
77100;SHT31;66602;48.922;2.414;2023-07-09T05:42:38;21.41;77.55
77100;SHT31;66602;48.922;2.414;2023-07-09T05:45:05;21.45;77.71
77100;SHT31;66602;48.922;2.414;2023-07-09T05:47:31;21.49;78.01
77100;SHT31;66602;48.922;2.414;2023-07-09T05:49:56;21.55;77.15
77100;SHT31;66602;48.922;2.414;2023-07-09T05:52:22;21.65;77.42
77100;SHT31;66602;48.922;2.414;2023-07-09T05:54:50;21.79;77.31
77100;SHT31;66602;48.922;2.414;2023-07-09T05:57:16;21.93;76.21
77100;SHT31;66602;48.922;2.414;2023-07-09T05:59:41;22.09;75.96
77100;SHT31;66602;48.922;2.414;2023-07-09T06:02:11;22.27;74.61
77100;SHT31;66602;48.922;2.414;2023-07-09T06:04:37;22.41;73.89
77100;SHT31;66602;48.922;2.414;2023-07-09T06:07:02;22.62;73.76
77100;SHT31;66602;48.922;2.414;2023-07-09T06:09:29;22.79;73.68
77100;SHT31;66602;48.922;2.414;2023-07-09T06:11:55;22.99;72.20
77100;SHT31;66602;48.922;2.414;2023-07-09T06:14:20;23.18;70.52
77100;SHT31;66602;48.922;2.414;2023-07-09T06:16:46;23.29;70.63
77100;SHT31;66602;48.922;2.414;2023-07-09T06:19:11;23.36;70.19
77100;SHT31;66602;48.922;2.414;2023-07-09T06:21:37;23.47;69.48
77100;SHT31;66602;48.922;2.414;2023-07-09T06:24:05;23.56;69.29
77100;SHT31;66602;48.922;2.414;2023-07-09T06:26:30;23.61;68.93
77100;SHT31;66602;48.922;2.414;2023-07-09T06:28:56;23.67;68.76
77100;SHT31;66602;48.922;2.414;2023-07-09T06:31:21;23.75;69.29
77100;SHT31;66602;48.922;2.414;2023-07-09T06:33:47;23.71;68.48
77100;SHT31;66602;48.922;2.414;2023-07-09T06:36:13;23.66;67.98
77100;SHT31;66602;48.922;2.414;2023-07-09T06:38:39;23.71;67.81
77100;SHT31;66602;48.922;2.414;2023-07-09T06:41:04;23.75;68.70
77100;SHT31;66602;48.922;2.414;2023-07-09T06:43:30;23.84;67.23
77100;SHT31;66602;48.922;2.414;2023-07-09T06:45:58;23.97;67.12
77100;SHT31;66602;48.922;2.414;2023-07-09T06:48:25;24.08;66.09
77100;SHT31;66602;48.922;2.414;2023-07-09T06:50:53;24.21;66.27
77100;SHT31;66602;48.922;2.414;2023-07-09T06:53:19;24.43;65.98
77100;SHT31;66602;48.922;2.414;2023-07-09T06:55:46;24.52;65.77
77100;SHT31;66602;48.922;2.414;2023-07-09T06:58:12;24.39;64.62
77100;SHT31;66602;48.922;2.414;2023-07-09T07:00:38;24.17;65.57
77100;SHT31;66602;48.922;2.414;2023-07-09T07:03:05;24.05;66.59
77100;SHT31;66602;48.922;2.414;2023-07-09T07:05:30;24.02;67.26
77100;SHT31;66602;48.922;2.414;2023-07-09T07:07:56;24.08;66.90
77100;SHT31;66602;48.922;2.414;2023-07-09T07:10:22;24.22;66.96
77100;SHT31;66602;48.922;2.414;2023-07-09T07:12:48;24.55;65.04
77100;SHT31;66602;48.922;2.414;2023-07-09T07:15:16;25.92;60.92
77100;SHT31;66602;48.922;2.414;2023-07-09T07:17:42;26.98;57.19
77100;SHT31;66602;48.922;2.414;2023-07-09T07:20:12;27.46;55.36
77100;SHT31;66602;48.922;2.414;2023-07-09T07:22:38;27.29;56.43
77100;SHT31;66602;48.922;2.414;2023-07-09T07:25:05;26.54;57.88
77100;SHT31;66602;48.922;2.414;2023-07-09T07:27:30;26.84;56.86
77100;SHT31;66602;48.922;2.414;2023-07-09T07:29:56;27.26;56.11
77100;SHT31;66602;48.922;2.414;2023-07-09T07:32:23;26.99;56.70
77100;SHT31;66602;48.922;2.414;2023-07-09T07:34:48;28.15;53.94
77100;SHT31;66602;48.922;2.414;2023-07-09T07:37:14;27.93;55.43
77100;SHT31;66602;48.922;2.414;2023-07-09T07:39:40;27.14;56.26
77100;SHT31;66602;48.922;2.414;2023-07-09T07:42:06;26.74;57.11
77100;SHT31;66602;48.922;2.414;2023-07-09T07:44:32;26.09;58.90
77100;SHT31;66602;48.922;2.414;2023-07-09T07:46:58;25.51;61.56
77100;SHT31;66602;48.922;2.414;2023-07-09T07:49:23;25.03;62.65
77100;SHT31;66602;48.922;2.414;2023-07-09T07:51:49;24.59;63.87
77100;SHT31;66602;48.922;2.414;2023-07-09T07:54:14;24.33;64.47
77100;SHT31;66602;48.922;2.414;2023-07-09T07:56:40;24.07;65.42
77100;SHT31;66602;48.922;2.414;2023-07-09T07:59:06;23.81;66.05
77100;SHT31;66602;48.922;2.414;2023-07-09T08:01:31;23.59;67.18
77100;SHT31;66602;48.922;2.414;2023-07-09T08:04:00;23.39;68.07
77100;SHT31;66602;48.922;2.414;2023-07-09T08:06:26;23.24;68.53
77100;SHT31;66602;48.922;2.414;2023-07-09T08:08:51;23.19;68.99
77100;SHT31;66602;48.922;2.414;2023-07-09T08:11:17;23.18;69.06
77100;SHT31;66602;48.922;2.414;2023-07-09T08:13:42;23.16;68.99
77100;SHT31;66602;48.922;2.414;2023-07-09T08:16:08;23.16;68.97
77100;SHT31;66602;48.922;2.414;2023-07-09T08:18:36;23.19;68.94
77100;SHT31;66602;48.922;2.414;2023-07-09T08:21:02;23.18;68.80
77100;SHT31;66602;48.922;2.414;2023-07-09T08:23:28;23.19;69.03
77100;SHT31;66602;48.922;2.414;2023-07-09T08:25:55;23.18;68.56
77100;SHT31;66602;48.922;2.414;2023-07-09T08:28:20;23.16;69.49
77100;SHT31;66602;48.922;2.414;2023-07-09T08:30:46;23.15;69.06
77100;SHT31;66602;48.922;2.414;2023-07-09T08:33:11;23.18;68.96
77100;SHT31;66602;48.922;2.414;2023-07-09T08:35:37;23.23;69.02
77100;SHT31;66602;48.922;2.414;2023-07-09T08:38:02;23.42;69.19
77100;SHT31;66602;48.922;2.414;2023-07-09T08:40:28;23.54;69.19
77100;SHT31;66602;48.922;2.414;2023-07-09T08:43:13;23.75;68.80
77100;SHT31;66602;48.922;2.414;2023-07-09T08:48:42;23.87;68.07
77100;SHT31;66602;48.922;2.414;2023-07-09T08:51:34;23.87;68.59
77100;SHT31;66602;48.922;2.414;2023-07-09T08:54:00;23.85;69.61
77100;SHT31;66602;48.922;2.414;2023-07-09T08:56:29;23.84;70.02
77100;SHT31;66602;48.922;2.414;2023-07-09T08:58:59;23.78;69.35
77100;SHT31;66602;48.922;2.414;2023-07-09T09:01:36;23.77;70.01
77100;SHT31;66602;48.922;2.414;2023-07-09T09:04:20;23.74;70.41
77100;SHT31;66602;48.922;2.414;2023-07-09T09:09:39;23.74;73.20
77100;SHT31;66602;48.922;2.414;2023-07-09T09:12:21;23.75;71.46
77100;SHT31;66602;48.922;2.414;2023-07-09T09:15:15;23.77;71.75
77100;SHT31;66602;48.922;2.414;2023-07-09T09:17:42;23.75;71.55
77100;SHT31;66602;48.922;2.414;2023-07-09T09:20:19;23.64;71.31
77100;SHT31;66602;48.922;2.414;2023-07-09T09:25:37;23.47;70.93
77100;SHT31;66602;48.922;2.414;2023-07-09T09:28:04;23.46;70.57
77100;SHT31;66602;48.922;2.414;2023-07-09T09:30:30;23.50;71.36
77100;SHT31;66602;48.922;2.414;2023-07-09T09:33:08;23.59;71.72
77100;SHT31;66602;48.922;2.414;2023-07-09T09:35:37;23.70;71.61
77100;SHT31;66602;48.922;2.414;2023-07-09T09:38:10;23.77;71.23
77100;SHT31;66602;48.922;2.414;2023-07-09T09:40:36;23.80;69.77
77100;SHT31;66602;48.922;2.414;2023-07-09T09:43:04;23.80;71.05
77100;SHT31;66602;48.922;2.414;2023-07-09T09:45:37;23.75;69.97
77100;SHT31;66602;48.922;2.414;2023-07-09T09:48:13;23.69;69.95
77100;SHT31;66602;48.922;2.414;2023-07-09T09:50:40;23.67;69.73
77100;SHT31;66602;48.922;2.414;2023-07-09T09:53:09;23.64;69.15
77100;SHT31;66602;48.922;2.414;2023-07-09T09:55:38;23.71;69.40
77100;SHT31;66602;48.922;2.414;2023-07-09T09:58:12;23.71;71.33
77100;SHT31;66602;48.922;2.414;2023-07-09T10:00:38;23.59;70.40
77100;SHT31;66602;48.922;2.414;2023-07-09T10:03:04;23.30;73.08
77100;SHT31;66602;48.922;2.414;2023-07-09T10:05:43;23.02;75.10
77100;SHT31;66602;48.922;2.414;2023-07-09T10:11:31;22.64;74.87
77100;SHT31;66602;48.922;2.414;2023-07-09T10:13:55;22.65;73.68
77100;SHT31;66602;48.922;2.414;2023-07-09T10:16:31;22.71;74.19
77100;SHT31;66602;48.922;2.414;2023-07-09T10:19:28;22.82;73.84
77100;SHT31;66602;48.922;2.414;2023-07-09T10:22:22;22.92;77.50
77100;SHT31;66602;48.922;2.414;2023-07-09T10:27:25;22.81;79.21
77100;SHT31;66602;48.922;2.414;2023-07-09T10:30:41;22.75;79.60
77100;SHT31;66602;48.922;2.414;2023-07-09T10:38:32;23.06;78.72
77100;SHT31;66602;48.922;2.414;2023-07-09T10:41:00;23.09;77.58
77100;SHT31;66602;48.922;2.414;2023-07-09T10:43:51;23.18;77.78
77100;SHT31;66602;48.922;2.414;2023-07-09T10:46:24;23.34;77.25
77100;SHT31;66602;48.922;2.414;2023-07-09T10:48:51;23.47;75.64
77100;SHT31;66602;48.922;2.414;2023-07-09T10:51:31;23.50;75.72
77100;SHT31;66602;48.922;2.414;2023-07-09T10:54:02;23.60;72.94
77100;SHT31;66602;48.922;2.414;2023-07-09T10:56:32;24.02;75.04
77100;SHT31;66602;48.922;2.414;2023-07-09T11:01:35;24.91;69.56
77100;SHT31;66602;48.922;2.414;2023-07-09T11:04:06;25.54;67.33
77100;SHT31;66602;48.922;2.414;2023-07-09T11:06:38;27.14;62.89
77100;SHT31;66602;48.922;2.414;2023-07-09T11:09:14;29.23;57.45
77100;SHT31;66602;48.922;2.414;2023-07-09T11:11:45;30.98;51.86
77100;SHT31;66602;48.922;2.414;2023-07-09T11:14:57;31.49;49.60
77100;SHT31;66602;48.922;2.414;2023-07-09T11:17:17;31.52;49.83
77100;SHT31;66602;48.922;2.414;2023-07-09T11:19:46;30.67;49.18
77100;SHT31;66602;48.922;2.414;2023-07-09T11:22:22;30.67;55.43
77100;SHT31;66602;48.922;2.414;2023-07-09T11:24:54;31.17;49.49
77100;SHT31;66602;48.922;2.414;2023-07-09T11:27:30;31.15;48.31
77100;SHT31;66602;48.922;2.414;2023-07-09T11:30:00;31.88;48.92
77100;SHT31;66602;48.922;2.414;2023-07-09T11:32:27;31.93;47.90
77100;SHT31;66602;48.922;2.414;2023-07-09T11:34:53;32.05;45.20
77100;SHT31;66602;48.922;2.414;2023-07-09T11:37:25;32.41;45.75
77100;SHT31;66602;48.922;2.414;2023-07-09T11:39:51;32.10;47.63
77100;SHT31;66602;48.922;2.414;2023-07-09T11:42:34;31.94;47.45
77100;SHT31;66602;48.922;2.414;2023-07-09T11:45:13;32.58;51.16
77100;SHT31;66602;48.922;2.414;2023-07-09T11:50:34;33.39;43.24
77100;SHT31;66602;48.922;2.414;2023-07-09T11:55:43;33.35;45.15
77100;SHT31;66602;48.922;2.414;2023-07-09T11:58:16;34.44;41.51
77100;SHT31;66602;48.922;2.414;2023-07-09T12:00:55;34.98;44.65
77100;SHT31;66602;48.922;2.414;2023-07-09T12:03:36;34.89;40.27
77100;SHT31;66602;48.922;2.414;2023-07-09T12:06:16;35.09;39.08
77100;SHT31;66602;48.922;2.414;2023-07-09T12:08:44;34.81;39.21
77100;SHT31;66602;48.922;2.414;2023-07-09T12:11:24;34.45;40.44
77100;SHT31;66602;48.922;2.414;2023-07-09T12:13:50;33.92;41.18
77100;SHT31;66602;48.922;2.414;2023-07-09T12:18:55;34.86;39.37
77100;SHT31;66602;48.922;2.414;2023-07-09T12:21:22;34.86;38.67
77100;SHT31;66602;48.922;2.414;2023-07-09T12:23:48;35.20;41.93
77100;SHT31;66602;48.922;2.414;2023-07-09T12:26:19;35.34;38.26
77100;SHT31;66602;48.922;2.414;2023-07-09T12:28:56;34.58;39.76
77100;SHT31;66602;48.922;2.414;2023-07-09T12:31:28;34.72;39.72
77100;SHT31;66602;48.922;2.414;2023-07-09T12:33:55;35.06;39.84
77100;SHT31;66602;48.922;2.414;2023-07-09T12:36:23;35.04;41.90
77100;SHT31;66602;48.922;2.414;2023-07-09T12:38:50;35.20;43.00
77100;SHT31;66602;48.922;2.414;2023-07-09T12:41:29;35.00;38.69
77100;SHT31;66602;48.922;2.414;2023-07-09T12:43:58;35.30;38.59
77100;SHT31;66602;48.922;2.414;2023-07-09T12:46:24;35.19;39.59
77100;SHT31;66602;48.922;2.414;2023-07-09T12:48:50;34.79;39.90
77100;SHT31;66602;48.922;2.414;2023-07-09T12:51:24;34.34;40.14
77100;SHT31;66602;48.922;2.414;2023-07-09T12:56:35;34.37;41.52
77100;SHT31;66602;48.922;2.414;2023-07-09T12:59:02;33.67;41.38
77100;SHT31;66602;48.922;2.414;2023-07-09T13:01:34;32.95;44.07
77100;SHT31;66602;48.922;2.414;2023-07-09T13:04:01;33.18;41.90
77100;SHT31;66602;48.922;2.414;2023-07-09T13:06:36;33.32;42.46
77100;SHT31;66602;48.922;2.414;2023-07-09T13:09:11;32.40;43.28
77100;SHT31;66602;48.922;2.414;2023-07-09T13:11:39;31.58;45.72
77100;SHT31;66602;48.922;2.414;2023-07-09T13:14:11;31.15;46.33
77100;SHT31;66602;48.922;2.414;2023-07-09T13:16:39;30.97;47.16
77100;SHT31;66602;48.922;2.414;2023-07-09T13:19:05;31.28;46.85
77100;SHT31;66602;48.922;2.414;2023-07-09T13:21:31;31.00;46.30
77100;SHT31;66602;48.922;2.414;2023-07-09T13:23:56;30.70;47.33
77100;SHT31;66602;48.922;2.414;2023-07-09T13:26:22;31.37;46.99
77100;SHT31;66602;48.922;2.414;2023-07-09T13:28:48;32.30;46.18
77100;SHT31;66602;48.922;2.414;2023-07-09T13:31:17;32.88;43.72
77100;SHT31;66602;48.922;2.414;2023-07-09T13:33:44;32.98;45.88
77100;SHT31;66602;48.922;2.414;2023-07-09T13:36:10;33.78;44.33
77100;SHT31;66602;48.922;2.414;2023-07-09T13:38:36;33.53;41.86
77100;SHT31;66602;48.922;2.414;2023-07-09T13:41:18;33.29;44.53
77100;SHT31;66602;48.922;2.414;2023-07-09T13:43:47;33.60;42.36
77100;SHT31;66602;48.922;2.414;2023-07-09T13:46:14;33.86;43.49
77100;SHT31;66602;48.922;2.414;2023-07-09T13:48:41;34.15;40.95
77100;SHT31;66602;48.922;2.414;2023-07-09T13:51:25;34.18;41.56
77100;SHT31;66602;48.922;2.414;2023-07-09T13:53:54;34.01;41.67
77100;SHT31;66602;48.922;2.414;2023-07-09T13:56:19;33.97;42.62
77100;SHT31;66602;48.922;2.414;2023-07-09T13:58:45;33.83;41.69
77100;SHT31;66602;48.922;2.414;2023-07-09T14:01:15;33.23;42.00
77100;SHT31;66602;48.922;2.414;2023-07-09T14:03:41;32.71;41.89
77100;SHT31;66602;48.922;2.414;2023-07-09T14:06:12;33.36;41.48
77100;SHT31;66602;48.922;2.414;2023-07-09T14:08:38;33.29;45.42
77100;SHT31;66602;48.922;2.414;2023-07-09T14:11:12;33.14;40.97
77100;SHT31;66602;48.922;2.414;2023-07-09T14:13:38;33.35;41.90
77100;SHT31;66602;48.922;2.414;2023-07-09T14:16:04;33.74;40.60
77100;SHT31;66602;48.922;2.414;2023-07-09T14:18:29;33.84;41.19
77100;SHT31;66602;48.922;2.414;2023-07-09T14:20:55;33.39;41.85
77100;SHT31;66602;48.922;2.414;2023-07-09T14:23:21;32.71;40.48
77100;SHT31;66602;48.922;2.414;2023-07-09T14:25:47;32.12;41.52
77100;SHT31;66602;48.922;2.414;2023-07-09T14:28:18;31.94;46.30
77100;SHT31;66602;48.922;2.414;2023-07-09T14:30:45;31.69;44.26
77100;SHT31;66602;48.922;2.414;2023-07-09T14:33:14;31.41;44.69
77100;SHT31;66602;48.922;2.414;2023-07-09T14:35:40;31.32;46.10
77100;SHT31;66602;48.922;2.414;2023-07-09T14:38:16;31.21;46.51
77100;SHT31;66602;48.922;2.414;2023-07-09T14:40:43;30.87;46.99
77100;SHT31;66602;48.922;2.414;2023-07-09T14:43:10;30.35;48.00
77100;SHT31;66602;48.922;2.414;2023-07-09T14:45:36;29.88;48.55
77100;SHT31;66602;48.922;2.414;2023-07-09T14:48:09;29.70;48.31
77100;SHT31;66602;48.922;2.414;2023-07-09T14:50:34;29.64;48.48
77100;SHT31;66602;48.922;2.414;2023-07-09T14:53:00;29.78;49.37
77100;SHT31;66602;48.922;2.414;2023-07-09T14:55:25;29.94;48.65
77100;SHT31;66602;48.922;2.414;2023-07-09T14:57:51;29.63;49.03
77100;SHT31;66602;48.922;2.414;2023-07-09T15:00:19;29.20;49.89
77100;SHT31;66602;48.922;2.414;2023-07-09T15:02:46;28.68;50.38
77100;SHT31;66602;48.922;2.414;2023-07-09T15:05:18;28.34;51.17
77100;SHT31;66602;48.922;2.414;2023-07-09T15:07:44;28.14;52.88
77100;SHT31;66602;48.922;2.414;2023-07-09T15:10:22;28.03;52.58
77100;SHT31;66602;48.922;2.414;2023-07-09T15:12:48;28.15;52.68
77100;SHT31;66602;48.922;2.414;2023-07-09T15:15:29;28.06;52.39
77100;SHT31;66602;48.922;2.414;2023-07-09T15:17:56;28.04;53.71
77100;SHT31;66602;48.922;2.414;2023-07-09T15:20:24;28.14;52.52
77100;SHT31;66602;48.922;2.414;2023-07-09T15:22:51;28.27;52.72
77100;SHT31;66602;48.922;2.414;2023-07-09T15:25:29;28.28;52.89
77100;SHT31;66602;48.922;2.414;2023-07-09T15:27:56;28.14;52.92
77100;SHT31;66602;48.922;2.414;2023-07-09T15:30:25;28.08;52.66
77100;SHT31;66602;48.922;2.414;2023-07-09T15:32:50;28.44;52.46
77100;SHT31;66602;48.922;2.414;2023-07-09T15:35:18;29.30;50.47
77100;SHT31;66602;48.922;2.414;2023-07-09T15:37:44;29.29;50.05
77100;SHT31;66602;48.922;2.414;2023-07-09T15:40:19;28.80;51.20
77100;SHT31;66602;48.922;2.414;2023-07-09T15:42:47;28.31;52.27
77100;SHT31;66602;48.922;2.414;2023-07-09T15:45:17;28.72;52.42
77100;SHT31;66602;48.922;2.414;2023-07-09T15:47:44;29.13;50.34
77100;SHT31;66602;48.922;2.414;2023-07-09T15:50:25;29.49;49.29
77100;SHT31;66602;48.922;2.414;2023-07-09T15:52:52;29.40;49.76
77100;SHT31;66602;48.922;2.414;2023-07-09T15:55:21;28.95;50.60
77100;SHT31;66602;48.922;2.414;2023-07-09T15:57:48;28.56;53.05
77100;SHT31;66602;48.922;2.414;2023-07-09T16:00:18;29.17;52.74
77100;SHT31;66602;48.922;2.414;2023-07-09T16:02:46;29.05;50.81
77100;SHT31;66602;48.922;2.414;2023-07-09T16:05:24;29.02;51.16
77100;SHT31;66602;48.922;2.414;2023-07-09T16:07:51;29.13;50.86
77100;SHT31;66602;48.922;2.414;2023-07-09T16:10:17;28.64;52.08
77100;SHT31;66602;48.922;2.414;2023-07-09T16:12:45;28.38;53.07
77100;SHT31;66602;48.922;2.414;2023-07-09T16:15:13;28.10;54.71